Time;durP1;ratioP1;P1;durP2;ratioP2;P2;SDS_P1;SDS_P2;PMS_P1;PMS_P2;Temp;Humidity;BMP_temperature;BMP_pressure;BME280_temperature;BME280_humidity;BME280_pressure;Samples;Min_cycle;Max_cycle;Signal;HPM_P1;HPM_P2
2023/03/08 00:00:03;;;;;;;7.13;4.70;;;;;;;-8.77;70.30;99421.41;4993890;28;20046;-74
2023/03/08 00:02:36;;;;;;;5.43;4.32;;;;;;;-8.80;70.69;99422.28;4994055;28;20097;-75
2023/03/08 00:05:03;;;;;;;8.48;4.93;;;;;;;-8.75;70.84;99424.88;4993697;28;20129;-74
2023/03/08 00:07:29;;;;;;;7.32;4.65;;;;;;;-8.78;71.51;99415.38;4995272;28;20042;-75
2023/03/08 00:09:55;;;;;;;3.70;3.05;;;;;;;-8.69;71.55;99425.72;5009782;28;20046;-74
2023/03/08 00:12:21;;;;;;;6.95;4.57;;;;;;;-8.75;71.93;99430.06;5009781;28;20086;-74
2023/03/08 00:14:48;;;;;;;7.38;4.60;;;;;;;-8.75;71.81;99420.56;5009692;28;20038;-74
2023/03/08 00:17:15;;;;;;;10.10;4.32;;;;;;;-8.72;71.55;99415.38;4994524;28;20050;-74
2023/03/08 00:19:41;;;;;;;6.20;4.15;;;;;;;-8.67;71.59;99429.19;4993309;28;20121;-75
2023/03/08 00:22:07;;;;;;;9.48;4.72;;;;;;;-8.66;71.29;99428.31;5009629;28;20558;-74
2023/03/08 00:24:33;;;;;;;7.75;4.57;;;;;;;-8.69;71.54;99425.72;4977096;28;20129;-76
2023/03/08 00:26:59;;;;;;;4.53;3.55;;;;;;;-8.69;71.50;99425.72;4993297;28;20077;-75
2023/03/08 00:29:25;;;;;;;6.78;4.20;;;;;;;-8.74;71.40;99430.06;4994380;28;20136;-74
2023/03/08 00:31:51;;;;;;;6.40;4.35;;;;;;;-8.84;71.88;99426.63;4993237;28;20100;-75
2023/03/08 00:34:18;;;;;;;9.00;6.03;;;;;;;-8.77;71.73;99435.22;4993303;28;20058;-76
2023/03/08 00:36:44;;;;;;;10.55;6.30;;;;;;;-8.77;71.74;99443.00;4976765;28;20114;-75
2023/03/08 00:39:10;;;;;;;10.55;6.90;;;;;;;-8.86;71.96;99419.72;4994257;28;20054;-76
2023/03/08 00:41:37;;;;;;;13.82;7.30;;;;;;;-8.70;72.15;99439.53;4992533;28;20050;-75
2023/03/08 00:44:03;;;;;;;11.48;6.50;;;;;;;-8.71;71.73;99427.47;4977286;28;20496;-75
2023/03/08 00:46:29;;;;;;;11.35;6.72;;;;;;;-8.62;71.52;99436.94;4993004;28;20054;-74
2023/03/08 00:48:55;;;;;;;8.95;6.07;;;;;;;-8.61;71.72;99439.56;5009001;28;20038;-74
2023/03/08 00:51:21;;;;;;;8.90;5.18;;;;;;;-8.63;72.07;99435.22;4992878;28;20128;-75
2023/03/08 00:53:47;;;;;;;10.52;5.70;;;;;;;-8.66;71.99;99436.09;4976242;28;20042;-73
2023/03/08 00:56:13;;;;;;;9.02;5.70;;;;;;;-8.65;72.28;99443.00;4977201;28;20096;-74
2023/03/08 00:58:40;;;;;;;7.20;5.35;;;;;;;-8.66;72.39;99446.44;4993833;28;20046;-75
2023/03/08 01:01:07;;;;;;;7.30;4.90;;;;;;;-8.73;72.78;99451.63;4992584;28;20046;-75
2023/03/08 01:03:34;;;;;;;11.88;6.30;;;;;;;-8.68;72.66;99453.38;4992609;28;20417;-75
2023/03/08 01:06:06;;;;;;;11.38;6.50;;;;;;;-8.66;72.78;99450.78;4992386;28;20053;-76
2023/03/08 01:08:32;;;;;;;16.30;7.90;;;;;;;-8.61;72.79;99459.44;4992851;28;20053;-75
2023/03/08 01:10:59;;;;;;;12.95;7.40;;;;;;;-8.62;72.57;99450.75;4992458;28;20050;-75
2023/03/08 01:13:28;;;;;;;18.00;8.20;;;;;;;-8.60;72.46;99454.22;4992498;28;20061;-74
2023/03/08 01:15:53;;;;;;;14.82;8.27;;;;;;;-8.56;72.25;99468.91;5008762;28;20049;-74
2023/03/08 01:18:19;;;;;;;18.73;8.57;;;;;;;-8.51;71.94;99460.25;4992185;28;20397;-75
2023/03/08 01:21:01;;;;;;;14.50;7.93;;;;;;;-8.53;72.01;99467.19;4992368;28;20042;-74
2023/03/08 01:23:28;;;;;;;16.23;7.68;;;;;;;-8.60;72.12;99464.59;4992954;28;20054;-75
2023/03/08 01:26:10;;;;;;;14.25;7.57;;;;;;;-8.67;72.29;99462.00;4993616;28;20042;-75
2023/03/08 01:28:37;;;;;;;10.10;7.00;;;;;;;-8.67;72.22;99467.19;4992708;28;20567;-74
2023/03/08 01:31:06;;;;;;;13.00;6.97;;;;;;;-8.68;71.91;99465.47;4976237;28;20038;-74
2023/03/08 01:33:33;;;;;;;15.70;7.93;;;;;;;-8.78;72.33;99469.78;4992725;28;20511;-75
2023/03/08 01:36:01;;;;;;;11.95;5.75;;;;;;;-8.92;72.66;99474.09;4976360;28;20050;-74
2023/03/08 01:38:27;;;;;;;13.88;8.38;;;;;;;-8.96;73.00;99482.72;4993753;28;20057;-74
2023/03/08 01:41:00;;;;;;;13.35;7.40;;;;;;;-8.89;73.30;99481.88;4992040;28;20390;-74
2023/03/08 01:43:35;;;;;;;16.90;7.80;;;;;;;-8.94;73.06;99483.59;4992098;28;20097;-75
2023/03/08 01:46:14;;;;;;;14.95;8.05;;;;;;;-8.89;72.65;99494.81;4992185;28;20130;-76
2023/03/08 01:49:10;;;;;;;;;;;;;;;-8.87;72.94;99495.69;4992593;28;20046;-75
2023/03/08 01:51:39;;;;;;;16.77;7.53;;;;;;;-8.84;73.07;99495.69;4987624;28;20407;-75
2023/03/08 01:54:25;;;;;;;17.63;8.32;;;;;;;-8.84;73.09;99498.28;4992393;28;20053;-74
2023/03/08 01:56:54;;;;;;;10.77;6.90;;;;;;;-8.83;72.83;99494.84;4992261;28;20104;-74
2023/03/08 01:59:22;;;;;;;15.77;7.18;;;;;;;-8.86;72.96;99502.59;4992187;28;20145;-74
2023/03/08 02:01:48;;;;;;;11.27;7.43;;;;;;;-8.91;72.87;99486.16;4959610;28;20057;-74
2023/03/08 02:04:15;;;;;;;15.85;8.27;;;;;;;-8.85;72.98;99491.38;5008380;28;20057;-74
2023/03/08 02:06:44;;;;;;;14.27;7.80;;;;;;;-8.96;72.84;99493.09;4991878;28;20133;-75
2023/03/08 02:09:11;;;;;;;7.65;5.05;;;;;;;-9.14;73.24;99476.69;4976200;28;20046;-75
2023/03/08 02:11:39;;;;;;;19.25;7.93;;;;;;;-9.03;73.38;99491.34;4991796;28;20050;-75
2023/03/08 02:14:05;;;;;;;12.68;7.32;;;;;;;-9.05;73.26;99479.28;5008266;28;20101;-76
2023/03/08 02:16:32;;;;;;;15.98;8.45;;;;;;;-9.05;73.15;99484.47;4993056;28;20482;-75
2023/03/08 02:19:05;;;;;;;14.00;8.05;;;;;;;-9.18;73.48;99492.19;5008247;28;20042;-75
2023/03/08 02:21:31;;;;;;;20.67;8.82;;;;;;;-9.21;73.28;99487.91;4975711;28;20076;-76
2023/03/08 02:24:05;;;;;;;16.58;8.77;;;;;;;-9.23;73.27;99484.44;4979449;28;20042;-74
2023/03/08 02:26:33;;;;;;;15.10;7.38;;;;;;;-9.27;73.19;99464.56;4995460;28;20054;-75
2023/03/08 02:28:59;;;;;;;16.27;9.05;;;;;;;-9.09;73.34;99487.91;5011726;28;20046;-77
2023/03/08 02:31:25;;;;;;;17.75;8.82;;;;;;;-9.14;73.31;99504.28;4995080;28;20117;-76
2023/03/08 02:33:51;;;;;;;15.68;8.98;;;;;;;-9.14;73.31;99493.94;4996497;28;20493;-75
2023/03/08 02:36:17;;;;;;;16.58;9.77;;;;;;;-9.04;73.17;99503.44;4996492;28;20086;-74
2023/03/08 02:38:42;;;;;;;19.80;9.82;;;;;;;-8.98;73.29;99505.19;4979533;28;20038;-75
2023/03/08 02:41:08;;;;;;;13.77;8.32;;;;;;;-8.97;72.83;99501.72;4979021;28;20058;-74
2023/03/08 02:43:35;;;;;;;21.95;8.60;;;;;;;-8.96;72.90;99508.63;4995341;28;20042;-75
2023/03/08 02:46:01;;;;;;;13.55;7.15;;;;;;;-9.03;72.87;99506.88;4995086;28;20073;-76
2023/03/08 02:48:27;;;;;;;15.10;8.40;;;;;;;-9.06;72.95;99506.03;4994865;28;20133;-76
2023/03/08 02:50:53;;;;;;;17.40;8.88;;;;;;;-9.03;72.86;99514.66;5011432;28;20180;-75
2023/03/08 02:53:18;;;;;;;13.55;7.32;;;;;;;-8.94;72.87;99517.28;4994873;28;20046;-75
2023/03/08 02:55:44;;;;;;;16.48;8.02;;;;;;;-8.95;72.69;99500.00;4994851;28;20038;-75
2023/03/08 02:58:11;;;;;;;14.75;7.30;;;;;;;-8.94;72.85;99493.97;4994815;28;20098;-78
2023/03/08 03:00:38;;;;;;;14.48;8.02;;;;;;;-8.87;72.88;99501.75;4994546;28;20042;-75
2023/03/08 03:03:05;;;;;;;19.52;7.72;;;;;;;-8.86;72.75;99490.50;5010487;28;20047;-75
2023/03/08 03:05:30;;;;;;;15.75;7.18;;;;;;;-8.79;72.48;99506.94;4994349;28;20048;-74
2023/03/08 03:07:58;;;;;;;12.35;6.80;;;;;;;-8.78;72.70;99493.09;5010503;28;20497;-76
2023/03/08 03:10:26;;;;;;;17.45;7.50;;;;;;;-8.84;72.43;99487.91;4994410;28;20405;-75
2023/03/08 03:12:52;;;;;;;19.95;7.65;;;;;;;-8.75;72.32;99500.88;4994226;28;20048;-74
2023/03/08 03:15:21;;;;;;;;;;;;;;;-8.76;72.40;99500.84;4994688;28;20049;-74
2023/03/08 03:17:51;;;;;;;17.38;7.22;;;;;;;-8.72;72.68;99513.84;4994269;28;19917;-76
2023/03/08 03:20:17;;;;;;;17.60;8.13;;;;;;;-8.65;72.17;99520.75;4977895;28;20053;-75
2023/03/08 03:22:43;;;;;;;20.00;9.88;;;;;;;-8.59;72.14;99500.00;4994100;28;20133;-75
2023/03/08 03:25:10;;;;;;;20.05;9.50;;;;;;;-8.63;71.90;99502.59;4978204;28;20046;-77
2023/03/08 03:27:36;;;;;;;18.38;10.18;;;;;;;-8.61;72.25;99499.16;4992108;28;20038;-78
2023/03/08 03:30:04;;;;;;;27.90;11.50;;;;;;;-8.57;71.79;99498.28;4971240;28;20042;-77
2023/03/08 03:32:31;;;;;;;23.75;10.70;;;;;;;-8.52;71.95;99489.66;4947682;28;20075;-77
2023/03/08 03:34:57;;;;;;;24.20;10.35;;;;;;;-8.36;71.59;99483.53;4972134;28;20064;-76
2023/03/08 03:37:23;;;;;;;24.67;9.73;;;;;;;-8.30;71.86;99480.94;4939050;29;20533;-75
2023/03/08 03:39:49;;;;;;;28.73;10.77;;;;;;;-8.13;72.05;99473.09;4971295;28;20115;-81
2023/03/08 03:42:17;;;;;;;24.75;11.10;;;;;;;-7.83;71.83;99479.91;4954806;28;20058;-79
2023/03/08 03:45:06;;;;;;;;;;;;;;;-7.54;71.49;99485.00;4942286;29;20137;-76
2023/03/08 03:47:32;;;;;;;13.95;7.90;;;;;;;-7.34;70.96;99488.34;4939310;29;19918;-75
2023/03/08 03:50:01;;;;;;;22.27;8.38;;;;;;;-7.17;70.78;99485.66;4955157;29;20047;-77
2023/03/08 03:52:32;;;;;;;16.55;8.73;;;;;;;-7.01;69.40;99493.34;4955148;29;20062;-78
2023/03/08 03:55:02;;;;;;;22.10;8.32;;;;;;;-6.93;69.11;99488.94;4939593;29;20047;-73
2023/03/08 03:57:29;;;;;;;17.40;7.95;;;;;;;-6.91;68.82;99492.41;4944466;28;20085;-77
2023/03/08 03:59:55;;;;;;;15.38;7.60;;;;;;;-6.86;68.76;99495.81;4962845;28;20067;-76
2023/03/08 04:02:22;;;;;;;13.45;8.38;;;;;;;-6.61;68.60;99479.16;4990751;28;20054;-76
2023/03/08 04:04:53;;;;;;;14.50;7.07;;;;;;;-6.66;67.89;99488.72;4993531;28;20105;-77
2023/03/08 04:07:24;;;;;;;18.05;8.07;;;;;;;-6.61;68.12;99497.38;4993632;28;20046;-76
2023/03/08 04:09:56;;;;;;;11.73;6.97;;;;;;;-6.50;67.89;99499.88;4977379;28;20068;-77
2023/03/08 04:12:22;;;;;;;11.13;7.18;;;;;;;-6.35;68.10;99493.69;4961090;28;20569;-77
2023/03/08 04:14:48;;;;;;;13.93;7.10;;;;;;;-6.30;67.56;99504.91;4990412;28;20073;-77
2023/03/08 04:17:16;;;;;;;14.40;7.68;;;;;;;-6.38;67.19;99511.91;4966613;28;20054;-75
2023/03/08 04:19:49;;;;;;;13.98;8.25;;;;;;;-6.37;67.17;99511.03;4976281;28;20034;-74
2023/03/08 04:22:16;;;;;;;14.98;7.63;;;;;;;-6.34;66.92;99505.81;4964057;28;20133;-76
2023/03/08 04:25:02;;;;;;;11.63;5.80;;;;;;;-6.51;67.84;99497.28;4994096;28;20077;-76
2023/03/08 04:27:40;;;;;;;12.50;6.72;;;;;;;-6.57;68.29;99493.00;4978474;28;20050;-76
2023/03/08 04:30:06;;;;;;;12.57;6.95;;;;;;;-6.43;68.52;99501.56;4992824;28;20074;-75
2023/03/08 04:32:34;;;;;;;14.13;8.88;;;;;;;-6.30;68.62;99478.88;5008924;28;20042;-77
2023/03/08 04:34:59;;;;;;;18.85;7.22;;;;;;;-6.02;68.85;99486.38;4976443;28;20560;-77
2023/03/08 04:37:29;;;;;;;17.75;7.60;;;;;;;-5.77;68.38;99481.75;5008767;28;20046;-77
2023/03/08 04:40:04;;;;;;;15.85;7.70;;;;;;;-5.68;68.40;99489.44;4992592;28;20145;-76
2023/03/08 04:42:33;;;;;;;15.52;7.93;;;;;;;-5.49;68.38;99477.94;4992451;28;20157;-77
2023/03/08 04:44:59;;;;;;;15.52;7.85;;;;;;;-5.51;67.86;99499.66;4980643;28;20050;-76
2023/03/08 04:47:25;;;;;;;18.95;9.32;;;;;;;-5.39;67.86;99497.75;4975323;28;20045;-79
2023/03/08 04:49:52;;;;;;;17.83;8.48;;;;;;;-5.12;68.07;99485.22;4938872;29;20043;-75
2023/03/08 04:52:18;;;;;;;16.33;7.88;;;;;;;-4.83;67.55;99495.22;4969845;28;20422;-77
2023/03/08 04:54:45;;;;;;;19.15;8.70;;;;;;;-4.51;66.91;99501.69;4936655;29;20097;-75
2023/03/08 04:57:23;;;;;;;18.52;9.27;;;;;;;-4.28;66.50;99501.31;4939155;29;20047;-74
2023/03/08 04:59:52;;;;;;;15.52;8.38;;;;;;;-4.23;65.50;99508.16;4937816;29;20047;-76
2023/03/08 05:02:21;;;;;;;18.40;8.75;;;;;;;-4.26;65.22;99507.34;4978977;28;20461;-76
2023/03/08 05:04:47;;;;;;;16.15;8.13;;;;;;;-4.30;65.26;99484.78;4976121;28;20046;-77
2023/03/08 05:07:13;;;;;;;28.10;10.32;;;;;;;-4.11;65.10;99493.16;4992505;28;20212;-78
2023/03/08 05:09:40;;;;;;;19.60;9.30;;;;;;;-4.03;65.13;99479.06;4960952;28;20047;-76
2023/03/08 05:12:06;;;;;;;14.93;7.95;;;;;;;-3.98;64.93;99482.47;4937627;28;20046;-75
2023/03/08 05:14:42;;;;;;;16.98;7.60;;;;;;;-4.19;64.58;99480.25;4953676;29;20536;-76
2023/03/08 05:17:08;;;;;;;18.15;7.75;;;;;;;-4.24;64.84;99459.44;4969790;28;20039;-77
2023/03/08 05:19:34;;;;;;;14.23;6.75;;;;;;;-4.06;64.64;99473.03;4921984;29;20043;-75
2023/03/08 05:22:00;;;;;;;14.15;7.60;;;;;;;-3.82;64.29;99480.41;4921844;29;20461;-76
2023/03/08 05:24:27;;;;;;;15.90;8.18;;;;;;;-3.48;64.65;99484.97;4953576;29;20055;-77
2023/03/08 05:26:54;;;;;;;16.05;8.05;;;;;;;-3.42;63.26;99472.63;4938038;29;20145;-75
2023/03/08 05:29:20;;;;;;;15.35;8.35;;;;;;;-3.13;63.66;99483.31;4937594;29;20087;-77
2023/03/08 05:31:48;;;;;;;26.92;7.65;;;;;;;-2.77;63.15;99482.50;4937351;28;20036;-75
2023/03/08 05:34:14;;;;;;;18.70;9.18;;;;;;;-2.49;62.31;99489.66;4937250;29;20102;-76
2023/03/08 05:36:44;;;;;;;14.98;8.00;;;;;;;-2.49;61.28;99492.28;4953388;28;20067;-76
2023/03/08 05:39:10;;;;;;;16.73;8.95;;;;;;;-2.46;61.05;99486.97;4947982;28;20054;-76
2023/03/08 05:42:02;;;;;;;17.88;8.90;;;;;;;-2.35;61.05;99474.47;4953601;29;20094;-76
2023/03/08 05:44:36;;;;;;;15.00;8.07;;;;;;;-2.09;60.85;99471.19;4975184;28;20057;-76
2023/03/08 05:47:04;;;;;;;13.68;9.98;;;;;;;-1.92;60.21;99478.56;4992067;28;20108;-76
2023/03/08 05:49:29;;;;;;;27.17;9.68;;;;;;;-1.61;59.62;99473.34;4959308;28;20156;-76
2023/03/08 05:51:56;;;;;;;17.13;9.68;;;;;;;-1.39;59.45;99470.97;4975500;28;20101;-76
2023/03/08 05:54:24;;;;;;;17.60;9.30;;;;;;;-1.22;58.95;99473.94;4975616;28;20034;-75
2023/03/08 05:56:53;;;;;;;16.95;8.77;;;;;;;-0.94;58.43;99466.97;4983313;28;20042;-75
2023/03/08 08:19:36;;;;;;;10.32;5.80;;;;;;;1.44;60.02;99262.59;5661727;23;19926;-76
2023/03/08 08:22:02;;;;;;;9.15;5.95;;;;;;;1.82;60.37;99260.88;4972302;28;20113;-82
2023/03/08 08:24:29;;;;;;;9.25;5.38;;;;;;;2.12;58.03;99263.88;4956632;28;20047;-77
2023/03/08 08:26:55;;;;;;;13.60;6.03;;;;;;;2.09;57.98;99255.25;4972102;28;20045;-76
2023/03/08 08:29:22;;;;;;;10.35;6.00;;;;;;;1.98;57.16;99263.66;4954913;28;20047;-76
2023/03/08 08:31:48;;;;;;;16.92;6.47;;;;;;;1.64;57.66;99261.72;4954796;28;20178;-77
2023/03/08 08:34:14;;;;;;;32.28;8.98;;;;;;;1.48;58.22;99251.00;4955422;28;20079;-78
2023/03/08 08:36:40;;;;;;;15.85;6.03;;;;;;;0.97;59.19;99260.22;4953793;29;20046;-78
2023/03/08 08:39:06;;;;;;;18.55;7.30;;;;;;;0.75;60.12;99244.47;4986181;28;20051;-78
2023/03/08 08:41:32;;;;;;;10.65;6.50;;;;;;;0.62;60.63;99243.28;4994370;28;20035;-77
2023/03/08 08:43:59;;;;;;;16.42;5.80;;;;;;;0.62;60.97;99246.78;4973798;28;20069;-77
2023/03/08 08:46:30;;;;;;;9.77;5.28;;;;;;;0.58;61.90;99247.81;4974263;28;20054;-78
2023/03/08 08:48:57;;;;;;;9.63;4.93;;;;;;;0.36;62.03;99226.78;4956411;28;20047;-79
2023/03/08 08:51:23;;;;;;;9.70;5.80;;;;;;;0.18;62.93;99236.25;4972428;28;20482;-77
2023/03/08 08:53:49;;;;;;;10.23;6.10;;;;;;;0.24;63.45;99230.78;4972086;28;20129;-76
2023/03/08 08:56:18;;;;;;;15.45;6.45;;;;;;;0.23;63.14;99231.69;4957176;28;20125;-76
2023/03/08 08:58:46;;;;;;;12.75;6.68;;;;;;;0.22;64.03;99214.19;4973104;28;20097;-78
2023/03/08 09:01:14;;;;;;;13.57;6.65;;;;;;;0.35;63.85;99224.25;4974320;28;20047;-78
2023/03/08 09:03:40;;;;;;;6.93;5.57;;;;;;;0.33;63.46;99210.28;4956510;28;20035;-77
2023/03/08 09:06:12;;;;;;;17.08;7.00;;;;;;;0.34;64.38;99201.47;4985098;28;20059;-83
2023/03/08 09:08:38;;;;;;;11.85;6.10;;;;;;;0.29;64.19;99200.81;4954795;28;20391;-77
2023/03/08 09:11:09;;;;;;;10.93;6.50;;;;;;;0.31;63.92;99201.63;4970751;28;20456;-79
2023/03/08 09:13:39;;;;;;;11.70;6.90;;;;;;;0.31;64.51;99214.75;4981300;28;20046;-78
2023/03/08 09:16:05;;;;;;;9.32;5.95;;;;;;;0.32;64.74;99204.19;4973911;28;20046;-79
2023/03/08 09:18:31;;;;;;;8.20;5.90;;;;;;;0.44;65.43;99202.81;4991272;28;20133;-79
2023/03/08 09:20:59;;;;;;;7.47;4.88;;;;;;;0.58;64.72;99195.22;4973652;28;20145;-79
2023/03/08 09:23:25;;;;;;;6.35;4.35;;;;;;;0.54;65.27;99193.63;4991936;28;20108;-79
2023/03/08 09:25:55;;;;;;;4.40;3.70;;;;;;;0.69;65.14;99190.34;4955786;28;20065;-81
2023/03/08 09:28:22;;;;;;;5.07;3.88;;;;;;;0.54;66.31;99204.16;4954530;28;20099;-77
2023/03/08 09:30:52;;;;;;;4.72;3.70;;;;;;;0.57;66.38;99196.16;4985460;28;20102;-79
2023/03/08 09:33:18;;;;;;;5.32;4.07;;;;;;;0.60;65.93;99188.13;4987922;28;20430;-78
2023/03/08 09:35:57;;;;;;;8.60;3.90;;;;;;;0.44;67.03;99187.88;4974318;28;20038;-78
2023/03/08 09:38:25;;;;;;;4.78;3.70;;;;;;;0.45;67.96;99194.88;4992133;28;20046;-80
2023/03/08 09:41:24;;;;;;;6.65;4.30;;;;;;;0.67;67.65;99194.81;4990546;28;20050;-79
2023/03/08 09:44:09;;;;;;;7.93;4.13;;;;;;;0.67;67.59;99184.28;4990171;28;20047;-79
2023/03/08 09:47:05;;;;;;;5.88;3.75;;;;;;;0.65;67.85;99162.47;4990029;28;20467;-77
2023/03/08 09:49:33;;;;;;;6.53;4.40;;;;;;;0.73;68.46;99180.56;4961834;28;20079;-77
2023/03/08 09:52:57;;;;;;;6.70;4.40;;;;;;;0.78;67.85;99180.38;4951556;29;20066;-78
2023/03/08 09:55:29;;;;;;;18.98;6.80;;;;;;;0.78;68.58;99177.72;4880899;29;20059;-79
2023/03/08 09:58:15;;;;;;;7.40;4.63;;;;;;;0.85;69.23;99168.66;4946077;28;20105;-77
2023/03/08 10:00:43;;;;;;;5.05;4.13;;;;;;;0.84;69.17;99173.06;4935172;29;20047;-77
2023/03/08 10:03:30;;;;;;;7.03;4.97;;;;;;;0.95;69.61;99165.56;4951335;29;20050;-78
2023/03/08 10:06:06;;;;;;;8.02;5.18;;;;;;;1.01;68.82;99167.06;4951793;28;20102;-81
2023/03/08 10:09:06;;;;;;;5.95;4.60;;;;;;;0.92;69.27;99159.56;4937354;29;20137;-77
2023/03/08 10:11:43;;;;;;;6.75;4.32;;;;;;;0.83;69.06;99175.75;4908433;29;20051;-77
2023/03/08 10:14:25;;;;;;;6.13;4.43;;;;;;;0.81;69.56;99169.72;4935595;29;20421;-75
2023/03/08 10:17:03;;;;;;;13.68;4.32;;;;;;;0.68;70.65;99169.41;4950782;29;20469;-76
2023/03/08 10:19:41;;;;;;;7.07;4.45;;;;;;;0.47;71.88;99174.63;4918589;29;20075;-77
2023/03/08 10:22:26;;;;;;;5.50;4.90;;;;;;;0.59;71.70;99169.75;4934930;29;20578;-78
2023/03/08 10:25:15;;;;;;;7.40;5.32;;;;;;;0.83;73.06;99168.72;4954273;28;20129;-78
2023/03/08 10:27:40;;;;;;;6.45;4.72;;;;;;;1.05;72.33;99160.72;4972736;28;20222;-77
2023/03/08 10:30:15;;;;;;;6.35;5.05;;;;;;;1.39;72.99;99157.47;4989210;28;20416;-79
2023/03/08 10:32:43;;;;;;;7.60;5.65;;;;;;;2.02;73.51;99157.13;4958184;28;20097;-79
2023/03/08 10:35:09;;;;;;;5.83;5.17;;;;;;;1.89;69.75;99150.75;4990658;28;20054;-77
2023/03/08 10:37:35;;;;;;;5.20;4.65;;;;;;;1.73;69.75;99155.03;4991567;28;20285;-75
2023/03/08 10:40:06;;;;;;;13.18;6.22;;;;;;;1.68;70.68;99158.75;4991652;28;20053;-76
2023/03/08 10:42:34;;;;;;;8.88;5.53;;;;;;;1.50;71.47;99154.31;4986562;28;20042;-74
2023/03/08 10:45:20;;;;;;;14.63;6.05;;;;;;;1.35;72.70;99152.38;4983708;28;20042;-77
2023/03/08 10:48:01;;;;;;;16.17;6.53;;;;;;;1.22;73.80;99154.72;4958552;28;20050;-77
2023/03/08 10:50:30;;;;;;;9.40;7.10;;;;;;;1.25;74.79;99144.06;4990821;28;20064;-77
2023/03/08 10:53:14;;;;;;;10.20;6.93;;;;;;;1.43;74.71;99151.13;4961736;28;20085;-75
2023/03/08 10:55:51;;;;;;;7.22;6.47;;;;;;;1.65;73.87;99150.97;4988512;28;20042;-75
2023/03/08 10:58:30;;;;;;;8.30;6.95;;;;;;;1.73;74.07;99150.63;4993910;28;20493;-76
2023/03/08 11:01:02;;;;;;;12.95;7.70;;;;;;;1.81;73.67;99158.19;4977783;28;20042;-77
2023/03/08 11:03:28;;;;;;;8.95;7.18;;;;;;;1.79;74.10;99160.03;5003373;28;20106;-76
2023/03/08 11:06:03;;;;;;;10.88;7.53;;;;;;;1.69;74.99;99164.84;4958217;28;20061;-76
2023/03/08 11:08:37;;;;;;;7.72;6.82;;;;;;;1.77;74.90;99151.31;4942604;28;20061;-75
2023/03/08 11:11:12;;;;;;;9.40;7.68;;;;;;;1.76;75.31;99160.16;4958136;28;20422;-75
2023/03/08 11:13:45;;;;;;;9.27;7.70;;;;;;;1.86;75.29;99158.81;4975016;28;20047;-76
2023/03/08 11:16:54;;;;;;;9.75;7.55;;;;;;;1.95;75.47;99151.28;4975844;28;20098;-77
2023/03/08 11:19:48;;;;;;;8.48;7.43;;;;;;;1.96;75.47;99141.63;4973611;28;20105;-75
2023/03/08 11:22:50;;;;;;;9.77;8.20;;;;;;;2.07;75.64;99154.28;4973609;28;20434;-76
2023/03/08 11:25:38;;;;;;;11.13;8.43;;;;;;;2.13;75.58;99144.28;4974248;28;20549;-77
2023/03/08 11:28:17;;;;;;;11.55;8.77;;;;;;;2.17;75.52;99156.41;4974992;28;20043;-79
2023/03/08 11:31:41;;;;;;;11.73;8.82;;;;;;;2.11;76.02;99153.22;4974674;28;20085;-77
2023/03/08 11:34:13;;;;;;;12.32;8.05;;;;;;;2.00;76.99;99159.00;4931665;29;20043;-77
2023/03/08 11:36:45;;;;;;;11.90;8.68;;;;;;;2.12;76.71;99155.78;4921859;29;20153;-76
2023/03/08 11:39:27;;;;;;;11.50;9.18;;;;;;;2.11;76.89;99159.34;4936205;28;20526;-78
2023/03/08 11:42:03;;;;;;;10.20;8.82;;;;;;;2.19;76.84;99151.91;4974952;28;20061;-79
2023/03/08 11:44:55;;;;;;;10.10;8.32;;;;;;;2.23;76.91;99162.31;4942334;28;20050;-77
2023/03/08 11:47:28;;;;;;;9.85;7.80;;;;;;;2.22;77.13;99165.84;4942448;28;20046;-75
2023/03/08 11:50:04;;;;;;;8.80;7.82;;;;;;;2.25;76.83;99163.94;4975153;28;20173;-77
2023/03/08 11:52:48;;;;;;;11.07;8.27;;;;;;;2.25;77.21;99171.00;4959294;28;20066;-76
2023/03/08 11:55:43;;;;;;;8.80;7.72;;;;;;;2.30;76.43;99166.38;4979246;28;20529;-77
2023/03/08 11:58:32;;;;;;;8.45;7.57;;;;;;;2.32;77.07;99167.97;4957695;28;20043;-76
2023/03/08 12:01:01;;;;;;;9.63;7.95;;;;;;;2.43;76.32;99175.38;4957866;28;20097;-75
2023/03/08 12:03:35;;;;;;;8.77;7.33;;;;;;;2.38;76.57;99165.06;4942013;28;20073;-76
2023/03/08 12:06:08;;;;;;;7.72;6.65;;;;;;;2.55;77.97;99156.28;4973549;28;20042;-76
2023/03/08 12:08:53;;;;;;;14.13;7.75;;;;;;;2.62;75.95;99162.09;4975180;28;20061;-73
2023/03/08 12:11:31;;;;;;;16.40;7.30;;;;;;;2.66;75.50;99169.78;4941846;28;20153;-74
2023/03/08 12:14:15;;;;;;;7.82;6.88;;;;;;;2.59;75.55;99164.91;4973684;28;20081;-74
2023/03/08 12:16:47;;;;;;;7.90;5.53;;;;;;;2.77;78.38;99168.41;4973977;28;20051;-78
2023/03/08 12:19:12;;;;;;;7.05;6.20;;;;;;;2.66;75.34;99147.81;4974890;28;20042;-76
2023/03/08 12:22:08;;;;;;;13.68;5.85;;;;;;;2.59;75.18;99149.06;4957602;28;20497;-75
2023/03/08 12:25:12;;;;;;;7.63;5.18;;;;;;;2.55;75.36;99161.56;4975205;28;20047;-75
2023/03/08 12:27:56;;;;;;;6.93;5.18;;;;;;;2.58;75.84;99155.28;4973820;28;20054;-78
2023/03/08 12:30:59;;;;;;;5.22;4.38;;;;;;;2.54;75.48;99165.13;4957844;28;20516;-76
2023/03/08 12:33:27;;;;;;;4.38;3.90;;;;;;;2.51;75.86;99154.72;4974949;28;20137;-76
2023/03/08 12:35:56;;;;;;;4.53;4.13;;;;;;;2.51;76.14;99165.28;4973386;28;20047;-75
2023/03/08 12:38:21;;;;;;;4.67;4.03;;;;;;;2.47;76.79;99150.53;4957201;28;20109;-76
2023/03/08 12:40:50;;;;;;;5.20;4.10;;;;;;;2.47;77.11;99171.63;4973197;28;20282;-76
2023/03/08 12:43:19;;;;;;;4.05;3.70;;;;;;;2.47;76.88;99163.72;4974410;28;20043;-78
2023/03/08 12:46:00;;;;;;;3.80;3.23;;;;;;;2.40;77.20;99157.03;4973115;28;20178;-76
2023/03/08 12:48:48;;;;;;;3.25;2.97;;;;;;;2.38;77.30;99148.38;4956493;28;20122;-75
2023/03/08 12:51:15;;;;;;;6.05;3.75;;;;;;;2.42;77.98;99163.97;4974534;28;20045;-77
2023/03/08 12:53:50;;;;;;;3.80;3.40;;;;;;;2.40;78.04;99164.97;4956436;28;20038;-75
2023/03/08 12:56:36;;;;;;;4.18;3.38;;;;;;;2.35;78.27;99153.78;4973018;28;20054;-76
2023/03/08 12:59:08;;;;;;;3.40;3.03;;;;;;;2.34;78.77;99154.72;4972687;28;20050;-76
2023/03/08 13:01:43;;;;;;;3.05;2.85;;;;;;;2.34;78.54;99152.09;4972734;28;20053;-77
2023/03/08 13:04:32;;;;;;;3.10;2.80;;;;;;;2.34;78.93;99173.19;4975350;28;20405;-77
2023/03/08 13:07:18;;;;;;;2.50;2.30;;;;;;;2.39;78.87;99171.19;4987407;28;20054;-76
2023/03/08 13:10:17;;;;;;;3.10;2.55;;;;;;;2.39;78.66;99166.75;4964045;28;20570;-77
2023/03/08 13:13:14;;;;;;;3.22;2.38;;;;;;;2.43;78.67;99172.72;4954704;29;20047;-76
2023/03/08 13:15:41;;;;;;;2.28;2.15;;;;;;;2.39;79.10;99176.44;4921689;29;20463;-76
2023/03/08 13:18:08;;;;;;;2.53;2.28;;;;;;;2.40;79.08;99179.00;4954486;29;20058;-75
2023/03/08 13:20:40;;;;;;;2.38;2.22;;;;;;;2.40;78.71;99184.28;4978265;28;20061;-77
2023/03/08 13:23:22;;;;;;;1.95;1.85;;;;;;;2.41;78.44;99180.72;4956846;28;20061;-76
2023/03/08 13:26:15;;;;;;;2.55;2.35;;;;;;;2.37;78.48;99188.84;4956034;28;20043;-76
2023/03/08 13:28:43;;;;;;;2.65;2.45;;;;;;;2.26;79.13;99185.88;4971227;28;20047;-76
2023/03/08 13:31:16;;;;;;;2.70;2.50;;;;;;;2.17;79.91;99201.22;4973706;28;20073;-76
2023/03/08 13:33:48;;;;;;;3.33;3.03;;;;;;;2.16;79.79;99202.16;4973260;28;20560;-75
2023/03/08 13:36:21;;;;;;;3.38;3.08;;;;;;;2.16;79.81;99209.22;4973807;28;20119;-76
2023/03/08 13:39:02;;;;;;;3.55;3.25;;;;;;;2.21;79.90;99203.72;4956186;28;20051;-75
2023/03/08 13:41:37;;;;;;;3.10;2.90;;;;;;;2.16;79.78;99217.97;4956546;28;20047;-75
2023/03/08 13:44:12;;;;;;;3.00;2.80;;;;;;;2.07;79.79;99218.44;4972670;28;20097;-75
2023/03/08 13:46:41;;;;;;;3.40;3.10;;;;;;;1.97;80.02;99211.03;4956473;28;20572;-76
2023/03/08 13:49:23;;;;;;;3.55;3.25;;;;;;;1.97;79.91;99217.16;4956192;28;20035;-76
2023/03/08 13:51:52;;;;;;;4.07;3.67;;;;;;;1.93;79.64;99220.84;4955990;28;20085;-76
2023/03/08 13:54:28;;;;;;;3.78;3.40;;;;;;;1.87;79.89;99224.63;4973265;28;20462;-75
2023/03/08 13:57:35;;;;;;;4.50;3.83;;;;;;;1.91;79.66;99233.22;4973142;28;20109;-76
2023/03/08 14:00:15;;;;;;;3.90;3.50;;;;;;;1.91;79.34;99212.16;4956392;28;20133;-77
2023/03/08 14:02:46;;;;;;;3.58;3.25;;;;;;;1.87;79.77;99223.75;4941190;28;20523;-76
2023/03/08 14:05:26;;;;;;;3.30;3.00;;;;;;;1.82;79.95;99228.41;4955944;28;20038;-76
2023/03/08 14:08:04;;;;;;;3.08;2.78;;;;;;;1.69;80.16;99226.34;4972067;28;20046;-76
2023/03/08 14:11:13;;;;;;;3.35;3.05;;;;;;;1.74;80.46;99234.03;4939822;28;20046;-75
2023/03/08 14:13:41;;;;;;;4.57;2.78;;;;;;;1.65;80.67;99240.56;4939234;28;20498;-75
2023/03/08 14:16:21;;;;;;;3.00;2.78;;;;;;;1.68;81.05;99242.19;4972926;28;20104;-74
2023/03/08 14:18:46;;;;;;;3.28;2.97;;;;;;;1.70;81.00;99246.50;4977204;28;20047;-76